Terminal Aerodrome Forecast
Issued by NWS Brownsville, TX

Current Version | Previous Version | Text Only | Print | Product List | Glossary Off
Versions: 1 2 3 4 5 6 7 8 9 10 11 12 13 14

000
FTUS44 KBRO 221126
TAFMFE
TAF
KMFE 221126Z 2212/2312 13008KT P6SM VCSH SCT020 BKN250
     FM221500 13015G23KT P6SM SCT035 BKN060
     FM230200 12012KT P6SM FEW070
     FM230600 11005KT P6SM FEW020=

USA.gov is the U.S. government's official web portal to all federal, state and local government web resources and services.